Time;durP1;ratioP1;P1;durP2;ratioP2;P2;SDS_P1;SDS_P2;PMS_P1;PMS_P2;Temp;Humidity;BMP_temperature;BMP_pressure;BME280_temperature;BME280_humidity;BME280_pressure;Samples;Min_cycle;Max_cycle;Signal;HPM_P1;HPM_P2
2022/09/18 00:00:00;;;;;;;6.50;4.68;;;27.80;57.10;;;;;;5013799;28;20108;-69
2022/09/18 00:02:26;;;;;;;6.82;4.90;;;27.80;57.10;;;;;;5014004;28;20026;-69
2022/09/18 00:04:52;;;;;;;11.00;5.13;;;27.90;57.00;;;;;;5012511;28;20121;-69
2022/09/18 00:07:18;;;;;;;5.53;4.30;;;27.80;57.00;;;;;;5013583;28;20034;-70
2022/09/18 00:09:45;;;;;;;4.97;4.03;;;27.80;57.00;;;;;;5013457;28;20084;-69
2022/09/18 00:12:11;;;;;;;6.40;4.13;;;27.70;56.90;;;;;;5013788;28;20065;-69
2022/09/18 00:14:37;;;;;;;4.82;4.10;;;27.80;56.90;;;;;;5013674;28;20463;-69
2022/09/18 00:17:03;;;;;;;4.18;3.78;;;27.70;57.00;;;;;;5013523;28;20034;-69
2022/09/18 00:19:29;;;;;;;4.85;4.32;;;27.80;57.20;;;;;;5012208;28;20167;-70
2022/09/18 00:21:55;;;;;;;5.70;4.45;;;27.60;57.40;;;;;;5012402;28;20120;-69
2022/09/18 00:24:23;;;;;;;3.95;3.45;;;27.50;57.60;;;;;;5013524;28;20180;-69
2022/09/18 00:26:49;;;;;;;5.75;3.88;;;27.60;57.80;;;;;;4994730;28;20107;-70
2022/09/18 00:29:16;;;;;;;6.22;3.65;;;27.50;57.90;;;;;;4994925;28;20049;-69
2022/09/18 00:31:44;;;;;;;3.97;3.53;;;27.60;57.80;;;;;;5013264;28;20029;-69
2022/09/18 00:34:13;;;;;;;5.75;4.20;;;27.50;57.70;;;;;;5011790;28;20034;-69
2022/09/18 00:36:40;;;;;;;4.60;3.70;;;27.50;57.70;;;;;;5013046;28;20197;-69
2022/09/18 00:39:07;;;;;;;7.35;4.05;;;27.50;57.80;;;;;;5012599;28;20073;-69
2022/09/18 00:41:38;;;;;;;4.35;3.72;;;27.50;57.80;;;;;;5012009;28;20102;-69
2022/09/18 00:44:32;;;;;;;5.65;3.88;;;27.40;57.90;;;;;;5013270;28;20037;-70
2022/09/18 00:47:18;;;;;;;4.85;3.35;;;27.40;57.90;;;;;;5011467;28;20065;-69
2022/09/18 00:49:48;;;;;;;4.65;3.65;;;27.40;57.80;;;;;;5012898;28;20230;-69
2022/09/18 00:52:18;;;;;;;5.38;3.70;;;27.30;57.90;;;;;;5011781;28;20038;-69
2022/09/18 00:54:49;;;;;;;3.80;2.80;;;27.30;58.00;;;;;;5012728;28;20045;-69
2022/09/18 00:57:21;;;;;;;3.97;3.17;;;27.40;58.10;;;;;;5012618;28;20167;-69
2022/09/18 00:59:49;;;;;;;4.47;3.08;;;27.40;58.30;;;;;;5012354;28;20557;-70
2022/09/18 01:02:15;;;;;;;3.22;2.90;;;27.30;58.40;;;;;;5011664;28;20042;-69
2022/09/18 01:04:41;;;;;;;4.30;3.25;;;27.20;58.50;;;;;;5011537;28;20037;-68
2022/09/18 01:07:32;;;;;;;3.67;2.88;;;27.30;58.40;;;;;;5012540;28;20054;-70
2022/09/18 01:10:20;;;;;;;3.97;3.13;;;27.30;58.40;;;;;;5011347;28;20529;-69
2022/09/18 01:12:58;;;;;;;3.75;3.10;;;27.30;58.40;;;;;;5011187;28;20065;-70
2022/09/18 01:15:30;;;;;;;4.28;3.28;;;27.40;58.40;;;;;;5012547;28;20076;-69
2022/09/18 01:18:20;;;;;;;3.72;2.95;;;27.30;58.40;;;;;;5010958;28;20065;-69
2022/09/18 01:21:34;;;;;;;5.13;3.47;;;27.20;58.30;;;;;;5012188;28;20530;-69
2022/09/18 01:24:21;;;;;;;4.00;3.38;;;27.40;58.30;;;;;;4989372;28;20424;-70
2022/09/18 01:27:03;;;;;;;3.80;2.40;;;27.40;58.20;;;;;;4957250;28;20043;-70
2022/09/18 01:30:03;;;;;;;2.95;2.75;;;27.50;58.10;;;;;;4989469;28;20526;-69
2022/09/18 01:32:42;;;;;;;3.50;2.85;;;27.50;58.10;;;;;;4989297;28;20038;-70
2022/09/18 01:35:24;;;;;;;4.05;3.08;;;27.50;58.10;;;;;;4972706;28;20077;-69
2022/09/18 01:37:56;;;;;;;3.63;3.10;;;27.50;58.00;;;;;;4988071;28;20125;-69
2022/09/18 01:40:35;;;;;;;3.40;3.10;;;27.50;57.90;;;;;;4969546;28;20086;-70
2022/09/18 01:43:07;;;;;;;4.10;3.60;;;27.60;57.90;;;;;;4971583;28;20143;-69
2022/09/18 01:45:40;;;;;;;3.55;3.17;;;27.50;57.90;;;;;;4970011;28;20065;-69
2022/09/18 01:48:07;;;;;;;4.22;3.20;;;27.60;57.90;;;;;;4970293;28;20082;-70
2022/09/18 01:50:45;;;;;;;4.40;3.05;;;27.60;57.90;;;;;;4954304;28;20031;-68
2022/09/18 01:53:22;;;;;;;4.40;3.65;;;27.80;57.90;;;;;;4986328;28;20051;-69
2022/09/18 01:56:00;;;;;;;5.65;3.47;;;27.70;57.80;;;;;;4953775;28;20031;-69
2022/09/18 01:58:27;;;;;;;5.00;3.30;;;27.70;57.90;;;;;;4953690;28;20058;-69
2022/09/18 02:00:59;;;;;;;5.15;3.67;;;27.70;57.80;;;;;;4995164;28;20054;-69
2022/09/18 02:03:34;;;;;;;4.03;3.40;;;27.60;57.80;;;;;;4997007;28;20021;-70
2022/09/18 02:06:18;;;;;;;4.55;3.25;;;27.70;57.80;;;;;;5010431;28;20494;-69
2022/09/18 02:08:50;;;;;;;3.85;2.72;;;27.60;57.80;;;;;;5011418;28;20183;-69
2022/09/18 02:11:20;;;;;;;4.43;2.90;;;27.70;57.90;;;;;;5009714;28;20435;-70
2022/09/18 02:14:31;;;;;;;3.22;2.70;;;27.80;57.80;;;;;;5009896;28;20107;-69
2022/09/18 02:17:26;;;;;;;3.63;2.60;;;27.80;57.70;;;;;;4953696;28;20035;-70
2022/09/18 02:20:00;;;;;;;2.35;2.05;;;27.70;57.60;;;;;;4953822;28;20041;-69
2022/09/18 02:22:31;;;;;;;4.20;2.90;;;27.70;57.60;;;;;;4953836;28;20042;-69
2022/09/18 02:25:01;;;;;;;3.63;2.78;;;27.80;57.60;;;;;;4953922;28;20117;-70
2022/09/18 02:27:29;;;;;;;4.72;3.58;;;27.90;57.50;;;;;;4953711;28;20054;-69
2022/09/18 02:29:56;;;;;;;3.42;2.65;;;27.90;57.50;;;;;;4969958;28;20045;-69
2022/09/18 02:32:22;;;;;;;4.95;2.53;;;27.80;57.50;;;;;;4969511;28;20047;-70
2022/09/18 02:34:48;;;;;;;2.45;2.20;;;27.80;57.40;;;;;;4969177;28;20034;-69
2022/09/18 02:37:38;;;;;;;2.25;1.90;;;27.90;57.40;;;;;;4969546;28;20049;-70
2022/09/18 02:40:08;;;;;;;1.75;1.65;;;27.90;57.30;;;;;;4953862;28;20038;-70
2022/09/18 02:43:02;;;;;;;1.67;1.58;;;27.80;57.40;;;;;;4953606;28;20038;-70
2022/09/18 02:45:42;;;;;;;1.50;1.40;;;27.90;57.40;;;;;;4937732;28;20132;-70
2022/09/18 02:48:44;;;;;;;2.17;1.50;;;27.90;57.50;;;;;;4969580;28;20054;-70
2022/09/18 02:51:39;;;;;;;2.03;1.70;;;27.90;57.40;;;;;;4976635;28;20096;-70
2022/09/18 02:54:08;;;;;;;1.92;1.73;;;27.80;57.40;;;;;;4994211;28;20034;-70
2022/09/18 02:57:03;;;;;;;1.88;1.60;;;27.80;57.50;;;;;;4995428;28;20096;-69
2022/09/18 02:59:35;;;;;;;3.35;1.90;;;27.70;57.50;;;;;;4937530;29;20059;-69
2022/09/18 03:02:03;;;;;;;1.50;1.40;;;27.70;57.60;;;;;;4951126;28;20480;-70
2022/09/18 03:04:32;;;;;;;1.63;1.52;;;27.60;57.80;;;;;;4956606;28;20447;-70
2022/09/18 03:07:08;;;;;;;1.60;1.50;;;27.60;57.90;;;;;;4972663;28;20466;-69
2022/09/18 03:09:41;;;;;;;1.48;1.35;;;27.50;58.10;;;;;;4956447;28;20042;-70
2022/09/18 03:12:08;;;;;;;1.98;1.50;;;27.60;58.20;;;;;;4956735;28;20097;-70
2022/09/18 03:14:38;;;;;;;1.73;1.60;;;27.50;58.20;;;;;;4956502;28;20080;-68
2022/09/18 03:17:04;;;;;;;1.25;1.15;;;27.50;58.20;;;;;;4972986;28;20053;-70
2022/09/18 03:19:31;;;;;;;1.50;1.38;;;27.50;58.10;;;;;;4956884;28;20054;-70
2022/09/18 03:21:58;;;;;;;2.97;1.48;;;27.60;58.10;;;;;;4956779;28;20042;-69
2022/09/18 03:24:27;;;;;;;2.10;1.38;;;27.50;58.10;;;;;;4958684;28;20039;-69
2022/09/18 03:26:53;;;;;;;1.42;1.33;;;27.60;58.10;;;;;;4956698;28;20031;-69
2022/09/18 03:29:22;;;;;;;2.03;1.55;;;27.50;58.20;;;;;;4940854;28;20051;-69
2022/09/18 03:31:50;;;;;;;1.70;1.50;;;27.60;58.20;;;;;;4972065;28;20054;-70
2022/09/18 03:34:16;;;;;;;1.98;1.38;;;27.60;58.10;;;;;;4972561;28;20042;-70
2022/09/18 03:36:45;;;;;;;2.05;1.35;;;27.50;58.10;;;;;;4995807;28;20045;-70
2022/09/18 03:39:13;;;;;;;1.65;1.55;;;27.60;58.10;;;;;;5012971;28;20128;-70
2022/09/18 03:41:39;;;;;;;1.60;1.50;;;27.40;58.10;;;;;;5012862;28;20490;-69
2022/09/18 03:44:07;;;;;;;2.08;1.35;;;27.60;58.20;;;;;;5012846;28;20092;-69
2022/09/18 03:46:38;;;;;;;1.30;1.20;;;27.40;58.10;;;;;;5012997;28;20461;-70
2022/09/18 03:49:04;;;;;;;1.40;1.30;;;27.60;58.00;;;;;;5013125;28;20033;-70
2022/09/18 03:51:33;;;;;;;0.98;0.98;;;27.70;57.90;;;;;;5012896;28;20030;-71
2022/09/18 03:53:59;;;;;;;1.50;1.17;;;27.60;57.80;;;;;;5013968;28;20022;-71
2022/09/18 03:56:44;;;;;;;1.50;1.40;;;27.60;57.70;;;;;;5014093;28;20029;-71
2022/09/18 03:59:30;;;;;;;1.50;1.40;;;27.70;57.50;;;;;;4952431;29;20062;-70
2022/09/18 04:02:16;;;;;;;0.98;0.98;;;27.50;57.00;;;;;;4966387;28;20043;-70
2022/09/18 04:05:01;;;;;;;0.80;0.80;;;27.60;57.40;;;;;;4951704;28;20516;-71
2022/09/18 04:07:46;;;;;;;1.85;1.30;;;27.50;57.20;;;;;;4952879;29;20170;-71
2022/09/18 04:10:35;;;;;;;1.45;1.35;;;27.70;58.40;;;;;;4895891;29;20051;-71
2022/09/18 04:13:04;;;;;;;3.20;1.20;;;27.60;60.10;;;;;;4896087;29;20052;-71
2022/09/18 04:15:33;;;;;;;1.23;1.13;;;27.90;61.40;;;;;;4895742;29;20049;-71
2022/09/18 04:17:59;;;;;;;1.30;1.20;;;28.00;63.50;;;;;;4895791;29;20069;-72
2022/09/18 04:20:25;;;;;;;1.60;1.10;;;28.00;59.00;;;;;;4895582;29;20120;-71
2022/09/18 04:22:51;;;;;;;1.77;1.10;;;28.00;58.10;;;;;;4895745;29;20049;-70
2022/09/18 04:25:17;;;;;;;1.92;0.95;;;27.90;57.20;;;;;;4895857;29;20589;-70
2022/09/18 04:27:45;;;;;;;0.80;0.80;;;27.90;57.00;;;;;;4895430;29;20049;-70
2022/09/18 04:30:13;;;;;;;0.98;0.80;;;27.90;56.60;;;;;;4910775;29;20421;-70
2022/09/18 04:32:42;;;;;;;0.60;0.60;;;27.80;56.20;;;;;;4888113;29;20085;-70
2022/09/18 04:35:09;;;;;;;0.70;0.70;;;27.70;56.00;;;;;;4879594;29;20506;-70
2022/09/18 04:37:35;;;;;;;2.70;0.80;;;27.80;55.70;;;;;;4912548;29;20080;-71
2022/09/18 04:40:02;;;;;;;0.68;0.68;;;27.80;55.40;;;;;;4898318;29;20649;-70
2022/09/18 04:42:30;;;;;;;1.98;1.27;;;27.80;55.10;;;;;;4914107;29;20044;-70
2022/09/18 04:44:56;;;;;;;0.43;0.43;;;27.90;55.00;;;;;;4897571;29;20122;-70
2022/09/18 04:47:23;;;;;;;0.20;0.20;;;27.80;54.60;;;;;;4934724;28;20046;-70
2022/09/18 04:49:49;;;;;;;2.00;0.60;;;27.70;54.20;;;;;;4975222;28;20448;-70
2022/09/18 04:52:18;;;;;;;0.30;0.30;;;27.60;54.30;;;;;;4991858;28;20034;-70
2022/09/18 04:54:44;;;;;;;0.50;0.50;;;27.60;54.20;;;;;;4959658;28;20042;-70
2022/09/18 04:57:12;;;;;;;0.60;0.60;;;27.70;53.40;;;;;;4985457;28;20045;-70
2022/09/18 04:59:40;;;;;;;12.70;1.75;;;27.70;53.30;;;;;;5011360;28;20054;-70
2022/09/18 05:02:06;;;;;;;0.20;0.20;;;27.70;53.70;;;;;;4995318;28;20026;-69
2022/09/18 05:04:34;;;;;;;1.63;0.47;;;27.80;53.90;;;;;;4995409;28;20095;-69
2022/09/18 05:07:07;;;;;;;2.85;1.73;;;27.80;54.80;;;;;;5011474;28;20452;-70
2022/09/18 05:09:35;;;;;;;0.32;0.32;;;27.80;55.30;;;;;;5011575;28;20367;-70
2022/09/18 05:12:03;;;;;;;1.38;0.57;;;27.70;54.20;;;;;;5011504;28;20026;-70
2022/09/18 05:14:31;;;;;;;0.35;0.35;;;27.70;55.60;;;;;;5010528;28;20049;-72
2022/09/18 05:17:01;;;;;;;0.20;0.20;;;27.80;55.30;;;;;;5010610;28;20040;-70
2022/09/18 05:19:35;;;;;;;0.57;0.43;;;27.80;55.00;;;;;;4995517;28;20045;-70
2022/09/18 05:22:06;;;;;;;0.80;0.80;;;27.70;55.20;;;;;;5010558;28;20034;-71
2022/09/18 05:24:35;;;;;;;1.20;0.93;;;27.60;54.40;;;;;;5005576;28;20038;-70
2022/09/18 05:27:02;;;;;;;0.45;0.45;;;27.70;54.40;;;;;;5009691;28;20157;-68
2022/09/18 05:29:29;;;;;;;1.25;1.10;;;27.60;55.80;;;;;;5010022;28;20115;-71
2022/09/18 05:32:02;;;;;;;0.50;0.50;;;27.50;55.80;;;;;;5010562;28;20044;-69
2022/09/18 05:34:28;;;;;;;1.20;1.10;;;27.60;55.40;;;;;;5010142;28;20061;-70
2022/09/18 05:36:55;;;;;;;1.27;1.17;;;27.50;56.60;;;;;;5009785;28;20030;-69
2022/09/18 05:39:21;;;;;;;1.98;1.40;;;27.60;55.50;;;;;;5010160;28;20038;-69
2022/09/18 05:41:50;;;;;;;1.83;1.48;;;27.70;54.70;;;;;;5009975;28;20115;-69
2022/09/18 05:44:17;;;;;;;1.08;0.98;;;27.60;56.30;;;;;;5009959;28;20120;-69
2022/09/18 05:46:48;;;;;;;1.20;1.10;;;27.50;56.30;;;;;;5009635;28;20033;-69
2022/09/18 05:49:15;;;;;;;3.15;1.38;;;27.60;55.80;;;;;;5010350;28;20044;-70
2022/09/18 05:51:43;;;;;;;1.35;1.23;;;27.30;55.30;;;;;;5009443;28;20026;-70
2022/09/18 05:54:11;;;;;;;5.53;1.10;;;27.40;56.40;;;;;;5010081;28;20147;-72
2022/09/18 05:56:43;;;;;;;1.52;1.10;;;27.40;56.10;;;;;;5005645;28;20100;-70
2022/09/18 05:59:10;;;;;;;1.38;1.17;;;27.40;55.00;;;;;;5009544;28;20030;-68
2022/09/18 06:01:36;;;;;;;1.35;1.20;;;27.40;56.00;;;;;;5009969;28;20073;-68
2022/09/18 06:04:17;;;;;;;1.05;1.05;;;27.40;58.70;;;;;;5009915;28;20026;-72
2022/09/18 06:07:04;;;;;;;3.70;1.40;;;27.50;57.30;;;;;;5008549;28;20042;-70
2022/09/18 06:09:30;;;;;;;1.35;1.25;;;27.40;56.50;;;;;;5009571;28;20029;-72
2022/09/18 06:11:58;;;;;;;2.92;1.58;;;27.40;55.80;;;;;;5008057;28;20116;-71
2022/09/18 06:14:24;;;;;;;2.67;1.73;;;27.50;56.30;;;;;;5010973;28;20029;-69
2022/09/18 06:16:50;;;;;;;1.95;1.60;;;27.50;56.30;;;;;;5008965;28;20105;-70
2022/09/18 06:19:16;;;;;;;2.60;1.50;;;27.50;56.30;;;;;;5009604;28;20422;-69
2022/09/18 06:21:45;;;;;;;1.40;1.30;;;27.50;56.40;;;;;;5008791;28;20057;-70
2022/09/18 06:24:15;;;;;;;1.73;1.60;;;27.60;56.50;;;;;;5009761;28;20037;-69
2022/09/18 06:26:50;;;;;;;1.42;1.20;;;27.60;56.40;;;;;;5008539;28;20066;-70
2022/09/18 06:29:16;;;;;;;2.88;1.20;;;27.70;56.70;;;;;;5010186;28;20034;-69
2022/09/18 06:31:48;;;;;;;;;;;27.60;56.40;;;;;;5009511;28;20073;-70
2022/09/18 06:34:20;;;;;;;1.08;0.85;;;27.60;56.70;;;;;;5009022;28;19909;-69
2022/09/18 06:36:47;;;;;;;0.40;0.40;;;27.70;55.80;;;;;;5009295;28;20030;-68
2022/09/18 06:39:27;;;;;;;0.60;0.60;;;27.60;56.30;;;;;;4989737;28;20030;-68
2022/09/18 06:41:59;;;;;;;0.77;0.77;;;27.70;57.50;;;;;;5009071;28;20076;-67
2022/09/18 06:44:51;;;;;;;1.05;0.95;;;27.60;57.70;;;;;;4988686;28;20051;-69
2022/09/18 06:47:17;;;;;;;0.50;0.50;;;27.60;58.00;;;;;;4972596;28;20053;-68
2022/09/18 06:49:45;;;;;;;1.58;0.70;;;27.50;57.30;;;;;;5005195;28;20072;-70
2022/09/18 06:52:11;;;;;;;0.80;0.65;;;27.50;56.10;;;;;;4988829;28;20472;-69
2022/09/18 06:54:38;;;;;;;1.63;0.70;;;27.50;55.40;;;;;;4967658;28;20058;-68
2022/09/18 06:57:06;;;;;;;1.20;1.10;;;27.50;55.60;;;;;;4972362;28;20064;-70
2022/09/18 06:59:32;;;;;;;0.88;0.73;;;27.40;55.10;;;;;;4986485;28;20039;-68
2022/09/18 07:01:59;;;;;;;4.15;0.82;;;27.60;54.70;;;;;;4973707;28;20050;-67
2022/09/18 07:04:51;;;;;;;1.00;1.00;;;27.40;53.70;;;;;;4926578;29;20066;-68
2022/09/18 07:07:19;;;;;;;0.57;0.57;;;27.40;54.10;;;;;;4930813;29;20036;-69
2022/09/18 07:09:47;;;;;;;0.68;0.68;;;27.50;54.50;;;;;;4884476;29;20489;-67
2022/09/18 07:12:22;;;;;;;0.60;0.60;;;27.50;54.20;;;;;;4894451;29;20116;-68
2022/09/18 07:14:52;;;;;;;1.95;0.50;;;27.40;53.80;;;;;;4894469;29;20052;-67
2022/09/18 07:17:20;;;;;;;0.60;0.60;;;27.40;53.70;;;;;;4912031;29;20052;-67
2022/09/18 07:19:47;;;;;;;5.10;1.50;;;27.40;53.90;;;;;;4911566;29;20083;-67
2022/09/18 07:22:15;;;;;;;0.60;0.60;;;27.40;53.80;;;;;;4911448;29;20453;-67
2022/09/18 07:24:45;;;;;;;0.40;0.40;;;27.40;52.80;;;;;;4912570;29;20036;-68
2022/09/18 07:27:11;;;;;;;0.95;0.70;;;27.40;53.50;;;;;;4930423;29;20193;-67
2022/09/18 07:29:40;;;;;;;0.50;0.50;;;27.50;54.40;;;;;;4914672;29;20044;-66
2022/09/18 07:32:07;;;;;;;0.40;0.40;;;27.40;54.60;;;;;;4914709;29;20564;-66
2022/09/18 07:34:33;;;;;;;0.50;0.50;;;27.50;54.40;;;;;;4930523;29;20048;-67
2022/09/18 07:36:59;;;;;;;0.55;0.47;;;27.60;54.70;;;;;;4915782;29;20032;-66
2022/09/18 07:39:26;;;;;;;1.67;0.73;;;27.50;55.00;;;;;;4934989;29;20126;-67
2022/09/18 07:42:15;;;;;;;1.05;0.82;;;27.50;53.10;;;;;;4976827;28;20042;-67
2022/09/18 07:44:48;;;;;;;4.65;0.40;;;27.50;53.10;;;;;;4992714;28;20192;-68
2022/09/18 07:47:15;;;;;;;0.50;0.50;;;27.50;52.60;;;;;;5011712;28;20046;-66
2022/09/18 07:49:42;;;;;;;1.75;0.50;;;27.50;50.90;;;;;;4995210;28;20576;-67
2022/09/18 07:52:09;;;;;;;0.38;0.38;;;27.50;51.40;;;;;;4994974;28;20091;-67
2022/09/18 07:54:43;;;;;;;1.17;0.55;;;27.50;51.40;;;;;;4964607;28;20156;-69
2022/09/18 07:57:27;;;;;;;2.20;0.93;;;27.50;51.40;;;;;;4991792;28;20073;-72
2022/09/18 08:00:14;;;;;;;0.38;0.38;;;27.50;51.20;;;;;;4991503;28;20118;-71
2022/09/18 08:02:43;;;;;;;0.30;0.30;;;27.60;51.20;;;;;;4991505;28;20042;-69
2022/09/18 08:05:14;;;;;;;1.48;0.47;;;27.60;51.30;;;;;;5009271;28;20045;-69
2022/09/18 08:07:51;;;;;;;6.75;0.73;;;27.50;51.40;;;;;;5010530;28;20118;-68
2022/09/18 08:10:34;;;;;;;2.85;0.35;;;27.60;51.60;;;;;;5010781;28;20038;-71
2022/09/18 08:13:18;;;;;;;0.35;0.35;;;27.60;51.90;;;;;;5010702;28;20132;-71
2022/09/18 08:16:08;;;;;;;3.20;0.50;;;27.60;52.00;;;;;;5010729;28;20034;-72
2022/09/18 08:19:00;;;;;;;0.63;0.63;;;27.50;52.10;;;;;;4986778;28;20045;-70
2022/09/18 08:21:35;;;;;;;0.50;0.50;;;27.70;52.30;;;;;;5010110;28;20483;-71
2022/09/18 08:24:06;;;;;;;0.22;0.22;;;27.60;52.60;;;;;;5013146;28;20069;-70
2022/09/18 08:26:37;;;;;;;3.20;0.63;;;27.60;52.80;;;;;;5017656;28;20391;-69
2022/09/18 08:29:05;;;;;;;0.68;0.28;;;27.60;52.80;;;;;;5016424;28;20044;-68
2022/09/18 08:31:31;;;;;;;0.85;0.85;;;27.60;53.10;;;;;;4995136;28;20049;-71
2022/09/18 08:33:58;;;;;;;0.30;0.30;;;27.70;53.00;;;;;;5011363;28;20038;-72
2022/09/18 08:36:25;;;;;;;1.55;0.90;;;27.70;53.30;;;;;;5011633;28;20101;-72
2022/09/18 08:39:01;;;;;;;0.50;0.47;;;27.70;53.00;;;;;;5017862;28;20054;-71
2022/09/18 08:41:57;;;;;;;0.52;0.52;;;27.60;52.20;;;;;;5012937;28;20030;-68
2022/09/18 08:44:47;;;;;;;0.30;0.30;;;27.70;52.20;;;;;;5009804;28;20128;-70
2022/09/18 08:47:22;;;;;;;5.03;1.08;;;27.60;52.20;;;;;;4976709;28;20038;-72
2022/09/18 08:50:08;;;;;;;0.35;0.35;;;27.80;56.70;;;;;;4977117;28;20110;-72
2022/09/18 08:52:39;;;;;;;1.48;0.68;;;28.00;56.30;;;;;;5008196;28;20053;-70
2022/09/18 08:55:43;;;;;;;0.55;0.55;;;28.30;53.90;;;;;;4988074;28;20125;-70
2022/09/18 08:58:41;;;;;;;1.40;0.80;;;28.10;53.80;;;;;;4968998;28;20079;-73
2022/09/18 09:01:12;;;;;;;0.30;0.30;;;28.10;53.40;;;;;;4966760;28;20870;-73
2022/09/18 09:04:14;;;;;;;0.82;0.40;;;28.00;53.60;;;;;;4953526;28;20042;-73
2022/09/18 09:06:52;;;;;;;0.40;0.40;;;27.90;52.40;;;;;;4966834;28;20432;-71
2022/09/18 09:09:32;;;;;;;1.13;0.73;;;28.00;52.70;;;;;;4950729;28;20512;-71
2022/09/18 09:12:35;;;;;;;0.52;0.52;;;27.90;52.50;;;;;;4953981;28;20037;-71
2022/09/18 09:15:22;;;;;;;3.70;0.60;;;27.90;52.30;;;;;;4928289;29;20046;-71
2022/09/18 09:18:04;;;;;;;0.70;0.70;;;28.00;52.80;;;;;;4909365;29;20023;-71
2022/09/18 09:20:50;;;;;;;0.50;0.50;;;28.00;52.90;;;;;;4936699;29;20118;-70
2022/09/18 09:23:24;;;;;;;0.32;0.32;;;28.10;52.80;;;;;;4925584;29;20477;-72
2022/09/18 09:26:13;;;;;;;0.70;0.70;;;27.90;52.20;;;;;;4914938;29;20044;-73
2022/09/18 09:29:18;;;;;;;0.40;0.40;;;28.00;52.80;;;;;;4915615;29;20120;-70
2022/09/18 09:32:29;;;;;;;1.00;0.32;;;27.90;51.90;;;;;;4879051;29;20048;-69
2022/09/18 09:35:34;;;;;;;0.30;0.30;;;28.00;52.80;;;;;;4904906;29;20056;-69
2022/09/18 09:38:29;;;;;;;1.75;0.63;;;27.90;52.30;;;;;;4897003;29;20044;-71
2022/09/18 09:40:59;;;;;;;0.47;0.32;;;27.90;52.10;;;;;;4910729;29;20063;-71
2022/09/18 09:43:42;;;;;;;0.50;0.50;;;28.00;52.60;;;;;;4911183;29;20032;-71
2022/09/18 09:46:22;;;;;;;0.65;0.45;;;27.90;52.10;;;;;;4908660;29;20127;-70
2022/09/18 09:48:59;;;;;;;1.40;0.40;;;27.90;52.10;;;;;;4896281;29;21140;-70
2022/09/18 09:51:37;;;;;;;1.55;0.50;;;27.90;51.40;;;;;;4902715;29;20072;-71
2022/09/18 09:54:09;;;;;;;0.77;0.75;;;27.80;47.80;;;;;;4892647;29;20045;-71
2022/09/18 09:56:38;;;;;;;;;;;27.90;45.60;;;;;;4893232;29;20072;-72
2022/09/18 09:59:15;;;;;;;5.93;1.00;;;27.80;44.80;;;;;;4887594;29;19915;-70
2022/09/18 10:02:27;;;;;;;0.85;0.60;;;27.90;45.30;;;;;;4876752;29;20498;-70
2022/09/18 10:05:18;;;;;;;0.50;0.50;;;27.90;48.20;;;;;;4871777;29;20124;-68
2022/09/18 10:08:14;;;;;;;0.60;0.50;;;27.90;49.00;;;;;;4910475;29;20058;-70
2022/09/18 10:11:03;;;;;;;2.45;0.28;;;27.90;48.70;;;;;;4914337;28;20178;-69
2022/09/18 10:13:41;;;;;;;0.30;0.30;;;27.80;49.40;;;;;;4949675;29;20066;-69
2022/09/18 10:16:37;;;;;;;0.70;0.40;;;27.80;49.70;;;;;;4928244;29;20196;-68
2022/09/18 10:19:13;;;;;;;1.00;0.57;;;27.80;50.20;;;;;;4877065;29;20044;-71
2022/09/18 10:21:41;;;;;;;2.33;1.20;;;27.90;56.90;;;;;;4908162;29;20432;-71
2022/09/18 10:24:28;;;;;;;1.55;0.60;;;28.00;55.10;;;;;;4910481;29;20044;-69
2022/09/18 10:27:13;;;;;;;3.83;1.50;;;28.50;59.80;;;;;;4905835;29;20100;-68
2022/09/18 10:29:41;;;;;;;0.63;0.47;;;28.80;48.40;;;;;;4911682;29;20133;-69
2022/09/18 10:32:12;;;;;;;2.38;0.70;;;28.60;51.40;;;;;;4896535;29;20044;-69
2022/09/18 10:34:47;;;;;;;1.10;0.50;;;28.60;51.90;;;;;;4895438;29;20040;-69
2022/09/18 10:37:37;;;;;;;2.08;0.55;;;28.60;51.30;;;;;;4904344;29;20514;-69
2022/09/18 10:40:27;;;;;;;0.50;0.50;;;28.70;47.50;;;;;;4895782;29;20501;-71
2022/09/18 10:42:56;;;;;;;0.65;0.50;;;28.50;51.40;;;;;;4909610;29;20069;-70
2022/09/18 10:45:28;;;;;;;0.50;0.50;;;28.40;49.80;;;;;;4896822;29;20084;-70
2022/09/18 10:48:14;;;;;;;0.43;0.43;;;28.50;50.30;;;;;;4937638;28;20043;-71
2022/09/18 10:50:53;;;;;;;0.50;0.50;;;28.40;51.20;;;;;;4932399;29;20034;-70
2022/09/18 10:53:30;;;;;;;0.20;0.20;;;28.40;49.30;;;;;;4917835;29;20136;-69
2022/09/18 10:56:04;;;;;;;;;;;28.30;50.90;;;;;;4978390;28;20057;-70
2022/09/18 10:58:32;;;;;;;1.85;0.35;;;28.30;47.70;;;;;;5007626;28;19913;-70
2022/09/18 11:01:04;;;;;;;0.32;0.32;;;28.40;51.50;;;;;;5008709;28;20045;-70
2022/09/18 11:03:44;;;;;;;0.38;0.30;;;28.30;51.60;;;;;;5008892;28;20503;-70
2022/09/18 11:06:27;;;;;;;0.50;0.50;;;28.30;51.90;;;;;;5006595;28;20112;-69
2022/09/18 11:09:00;;;;;;;0.47;0.47;;;28.30;51.90;;;;;;5010463;28;20372;-70
2022/09/18 11:11:33;;;;;;;0.30;0.30;;;28.30;51.60;;;;;;5008669;28;20046;-70
2022/09/18 11:14:16;;;;;;;0.75;0.50;;;28.40;52.00;;;;;;5009593;28;20072;-69
2022/09/18 11:16:59;;;;;;;3.35;0.57;;;28.20;52.20;;;;;;5013342;28;20479;-69
2022/09/18 11:19:33;;;;;;;0.73;0.73;;;28.30;52.30;;;;;;4989784;28;20133;-69
2022/09/18 11:22:25;;;;;;;0.88;0.88;;;28.30;51.90;;;;;;5012705;28;20036;-70
2022/09/18 11:25:06;;;;;;;0.40;0.40;;;28.40;52.30;;;;;;5012170;28;20175;-69
2022/09/18 11:27:48;;;;;;;0.40;0.40;;;28.30;52.30;;;;;;5012464;28;20466;-70
2022/09/18 11:30:25;;;;;;;0.63;0.63;;;28.20;52.30;;;;;;5019129;28;20092;-69
2022/09/18 11:32:59;;;;;;;0.47;0.40;;;28.30;52.60;;;;;;5012402;28;20101;-68
2022/09/18 11:35:28;;;;;;;0.40;0.40;;;28.20;52.60;;;;;;5012282;28;20084;-68
2022/09/18 11:37:59;;;;;;;0.32;0.32;;;28.20;52.50;;;;;;5012279;28;20084;-68
2022/09/18 11:40:41;;;;;;;1.17;0.52;;;28.30;52.30;;;;;;5030829;28;20046;-68
2022/09/18 11:43:28;;;;;;;0.50;0.50;;;28.30;51.30;;;;;;5014401;28;20760;-70
2022/09/18 11:46:50;;;;;;;0.30;0.30;;;28.30;52.30;;;;;;5013876;28;20041;-69
2022/09/18 11:49:26;;;;;;;0.47;0.47;;;28.20;52.10;;;;;;4975281;28;20183;-69
2022/09/18 11:52:09;;;;;;;2.20;0.47;;;28.30;52.00;;;;;;4974284;28;20077;-70
2022/09/18 11:55:07;;;;;;;0.40;0.40;;;28.20;51.70;;;;;;4968205;28;20089;-70
2022/09/18 11:57:44;;;;;;;1.50;0.45;;;28.20;49.60;;;;;;4990461;28;20048;-70
2022/09/18 12:00:19;;;;;;;1.25;0.57;;;28.20;52.80;;;;;;4974116;28;20046;-72
2022/09/18 12:02:57;;;;;;;0.77;0.40;;;28.20;52.30;;;;;;4974671;28;20073;-70
2022/09/18 12:05:32;;;;;;;0.28;0.28;;;28.20;53.40;;;;;;4958483;28;20038;-71
2022/09/18 12:08:10;;;;;;;8.50;0.55;;;28.10;52.10;;;;;;4984452;28;20523;-70
2022/09/18 12:11:00;;;;;;;11.98;0.73;;;28.20;52.20;;;;;;4973888;28;20053;-72
2022/09/18 12:14:18;;;;;;;0.63;0.45;;;28.20;52.00;;;;;;4989705;28;20218;-71
2022/09/18 12:17:03;;;;;;;0.40;0.30;;;28.10;51.60;;;;;;4879720;29;20045;-71
2022/09/18 12:19:49;;;;;;;0.60;0.60;;;28.00;50.60;;;;;;4888233;29;20200;-71
2022/09/18 12:22:21;;;;;;;0.50;0.50;;;28.00;51.50;;;;;;4876833;29;20044;-71
2022/09/18 12:24:49;;;;;;;1.13;0.43;;;28.00;52.30;;;;;;4875907;29;20483;-71
2022/09/18 12:27:18;;;;;;;0.98;0.63;;;28.10;53.60;;;;;;4876745;29;20586;-72
2022/09/18 12:29:47;;;;;;;0.50;0.50;;;28.20;52.40;;;;;;4877063;29;20045;-71
2022/09/18 12:32:46;;;;;;;1.27;0.98;;;28.20;50.50;;;;;;4876916;29;20169;-71
2022/09/18 12:35:26;;;;;;;1.63;0.60;;;28.10;51.90;;;;;;4876989;29;20458;-71
2022/09/18 12:38:22;;;;;;;0.30;0.30;;;28.10;51.50;;;;;;4876327;29;20498;-72
2022/09/18 12:41:17;;;;;;;0.50;0.50;;;28.00;52.80;;;;;;4876535;29;20056;-71
2022/09/18 12:44:00;;;;;;;0.40;0.40;;;28.20;52.00;;;;;;4876486;29;20051;-71
2022/09/18 12:46:26;;;;;;;;;;;28.10;47.60;;;;;;4875731;29;20131;-71
2022/09/18 12:49:00;;;;;;;1.65;0.35;;;28.10;53.30;;;;;;4875051;29;19955;-71
2022/09/18 12:51:35;;;;;;;0.77;0.68;;;28.00;48.20;;;;;;4876647;29;20042;-71
2022/09/18 12:54:35;;;;;;;0.28;0.28;;;28.00;52.70;;;;;;4967001;28;20053;-71
2022/09/18 12:57:19;;;;;;;0.38;0.38;;;28.10;50.20;;;;;;4993338;28;20058;-71
2022/09/18 12:59:56;;;;;;;0.52;0.40;;;27.90;52.00;;;;;;4993111;28;20352;-71
2022/09/18 13:02:53;;;;;;;1.65;0.50;;;27.90;51.40;;;;;;4993331;28;20053;-71
2022/09/18 13:05:29;;;;;;;0.30;0.30;;;27.80;51.10;;;;;;5012574;28;20034;-71
2022/09/18 13:08:18;;;;;;;0.40;0.40;;;27.90;50.50;;;;;;5011649;28;20041;-70
2022/09/18 13:10:46;;;;;;;0.30;0.30;;;27.90;51.50;;;;;;5012014;28;20422;-71
2022/09/18 13:13:42;;;;;;;0.40;0.40;;;27.80;52.60;;;;;;5012704;28;20033;-71
2022/09/18 13:16:26;;;;;;;0.40;0.40;;;27.70;51.80;;;;;;5030507;28;20037;-71
2022/09/18 13:19:12;;;;;;;0.60;0.60;;;27.70;51.50;;;;;;5019222;28;20022;-71
2022/09/18 13:21:43;;;;;;;0.55;0.40;;;27.80;50.80;;;;;;5012304;28;20463;-71
2022/09/18 13:24:28;;;;;;;0.50;0.50;;;27.80;52.00;;;;;;5012836;28;20474;-71
2022/09/18 13:26:55;;;;;;;2.17;0.40;;;27.70;51.60;;;;;;5018616;28;20506;-71
2022/09/18 13:29:52;;;;;;;0.47;0.47;;;27.70;53.00;;;;;;5017529;28;20038;-71
2022/09/18 13:32:22;;;;;;;0.30;0.30;;;27.80;52.10;;;;;;5012618;28;20045;-71